sensor_id;sensor_type;location;lat;lon;timestamp;pressure;altitude;pressure_sealevel;temperature;humidity
46007;BME280;31738;50.188;8.524;2022-10-15T00:00:06;97986.41;;;15.17;100.00
46007;BME280;31738;50.188;8.524;2022-10-15T00:02:31;97988.78;;;15.18;100.00
46007;BME280;31738;50.188;8.524;2022-10-15T00:04:57;97986.41;;;15.17;100.00
46007;BME280;31738;50.188;8.524;2022-10-15T00:07:30;97988.78;;;15.18;100.00
46007;BME280;31738;50.188;8.524;2022-10-15T00:09:55;97980.19;;;15.16;100.00
46007;BME280;31738;50.188;8.524;2022-10-15T00:12:21;97962.41;;;15.15;100.00
46007;BME280;31738;50.188;8.524;2022-10-15T00:14:46;97970.50;;;15.15;100.00
46007;BME280;31738;50.188;8.524;2022-10-15T00:17:12;97973.22;;;15.15;100.00
46007;BME280;31738;50.188;8.524;2022-10-15T00:19:40;97969.38;;;15.16;100.00
46007;BME280;31738;50.188;8.524;2022-10-15T00:22:06;97965.44;;;15.14;100.00
46007;BME280;31738;50.188;8.524;2022-10-15T00:24:31;97965.44;;;15.14;100.00
46007;BME280;31738;50.188;8.524;2022-10-15T00:26:57;97968.94;;;15.14;100.00
46007;BME280;31738;50.188;8.524;2022-10-15T00:29:23;97967.81;;;15.15;100.00
46007;BME280;31738;50.188;8.524;2022-10-15T00:31:52;97971.63;;;15.14;100.00
46007;BME280;31738;50.188;8.524;2022-10-15T00:34:21;97977.03;;;15.14;100.00
46007;BME280;31738;50.188;8.524;2022-10-15T00:36:48;97984.00;;;15.15;100.00
46007;BME280;31738;50.188;8.524;2022-10-15T00:39:14;97980.50;;;15.15;100.00
46007;BME280;31738;50.188;8.524;2022-10-15T00:41:42;97969.38;;;15.16;100.00
46007;BME280;31738;50.188;8.524;2022-10-15T00:47:13;97970.50;;;15.07;100.00
46007;BME280;31738;50.188;8.524;2022-10-15T00:50:06;97974.34;;;15.06;100.00
46007;BME280;31738;50.188;8.524;2022-10-15T00:52:43;97968.59;;;15.07;100.00
46007;BME280;31738;50.188;8.524;2022-10-15T00:55:17;97969.09;;;15.09;100.00
46007;BME280;31738;50.188;8.524;2022-10-15T00:57:45;97959.88;;;15.10;100.00
46007;BME280;31738;50.188;8.524;2022-10-15T01:00:13;97956.84;;;15.12;100.00
46007;BME280;31738;50.188;8.524;2022-10-15T01:02:43;97953.81;;;15.13;100.00
46007;BME280;31738;50.188;8.524;2022-10-15T01:05:09;97946.53;;;15.14;100.00
46007;BME280;31738;50.188;8.524;2022-10-15T01:07:40;97950.03;;;15.14;100.00
46007;BME280;31738;50.188;8.524;2022-10-15T01:10:06;97953.16;;;15.16;100.00
46007;BME280;31738;50.188;8.524;2022-10-15T01:15:28;97952.25;;;15.12;100.00
46007;BME280;31738;50.188;8.524;2022-10-15T01:18:13;97949.06;;;15.10;100.00
46007;BME280;31738;50.188;8.524;2022-10-15T01:26:38;97945.22;;;15.11;100.00
46007;BME280;31738;50.188;8.524;2022-10-15T01:29:31;97948.56;;;15.08;100.00
46007;BME280;31738;50.188;8.524;2022-10-15T01:32:04;97941.44;;;15.12;100.00
46007;BME280;31738;50.188;8.524;2022-10-15T01:34:52;97943.66;;;15.10;100.00
46007;BME280;31738;50.188;8.524;2022-10-15T01:37:36;97938.75;;;15.12;100.00
46007;BME280;31738;50.188;8.524;2022-10-15T01:40:16;97930.63;;;15.12;100.00
46007;BME280;31738;50.188;8.524;2022-10-15T01:42:59;97935.56;;;15.10;100.00
46007;BME280;31738;50.188;8.524;2022-10-15T01:46:08;97929.34;;;15.10;100.00
46007;BME280;31738;50.188;8.524;2022-10-15T01:48:55;97924.75;;;15.10;100.00
46007;BME280;31738;50.188;8.524;2022-10-15T01:51:23;97917.59;;;15.14;100.00
46007;BME280;31738;50.188;8.524;2022-10-15T01:53:57;97919.50;;;15.14;100.00
46007;BME280;31738;50.188;8.524;2022-10-15T01:56:24;97931.56;;;15.16;100.00
46007;BME280;31738;50.188;8.524;2022-10-15T01:58:53;97926.16;;;15.16;100.00
46007;BME280;31738;50.188;8.524;2022-10-15T02:01:20;97928.53;;;15.18;100.00
46007;BME280;31738;50.188;8.524;2022-10-15T02:03:48;97923.94;;;15.18;100.00
46007;BME280;31738;50.188;8.524;2022-10-15T02:06:36;97926.81;;;15.13;100.00
46007;BME280;31738;50.188;8.524;2022-10-15T02:09:13;97920.75;;;15.16;100.00
46007;BME280;31738;50.188;8.524;2022-10-15T02:11:58;97916.81;;;15.14;100.00
46007;BME280;31738;50.188;8.524;2022-10-15T02:14:35;97919.19;;;15.15;100.00
46007;BME280;31738;50.188;8.524;2022-10-15T02:17:07;97919.97;;;15.16;100.00
46007;BME280;31738;50.188;8.524;2022-10-15T02:19:38;97922.38;;;15.17;100.00
46007;BME280;31738;50.188;8.524;2022-10-15T02:24:46;97931.56;;;15.16;100.00
46007;BME280;31738;50.188;8.524;2022-10-15T02:27:15;97931.56;;;15.16;100.00
46007;BME280;31738;50.188;8.524;2022-10-15T02:29:43;97937.44;;;15.18;100.00
46007;BME280;31738;50.188;8.524;2022-10-15T02:32:14;97934.75;;;15.18;100.00
46007;BME280;31738;50.188;8.524;2022-10-15T02:34:41;97933.16;;;15.17;100.00
46007;BME280;31738;50.188;8.524;2022-10-15T02:37:09;97932.03;;;15.18;100.00
46007;BME280;31738;50.188;8.524;2022-10-15T02:39:34;97929.03;;;15.20;100.00
46007;BME280;31738;50.188;8.524;2022-10-15T02:42:02;97938.69;;;15.21;100.00
46007;BME280;31738;50.188;8.524;2022-10-15T02:44:30;97927.88;;;15.21;100.00
46007;BME280;31738;50.188;8.524;2022-10-15T02:46:57;97924.88;;;15.22;100.00
46007;BME280;31738;50.188;8.524;2022-10-15T02:49:24;97924.41;;;15.20;100.00
46007;BME280;31738;50.188;8.524;2022-10-15T02:51:53;97914.72;;;15.19;100.00
46007;BME280;31738;50.188;8.524;2022-10-15T02:54:18;97912.34;;;15.18;100.00
46007;BME280;31738;50.188;8.524;2022-10-15T02:56:46;97911.56;;;15.17;100.00
46007;BME280;31738;50.188;8.524;2022-10-15T02:59:15;97911.06;;;15.15;100.00
46007;BME280;31738;50.188;8.524;2022-10-15T03:01:42;97906.81;;;15.14;100.00
46007;BME280;31738;50.188;8.524;2022-10-15T03:04:08;97905.19;;;15.13;100.00
46007;BME280;31738;50.188;8.524;2022-10-15T03:06:36;97915.19;;;15.13;100.00
46007;BME280;31738;50.188;8.524;2022-10-15T03:09:02;97912.81;;;15.11;100.00
46007;BME280;31738;50.188;8.524;2022-10-15T03:11:31;97915.84;;;15.10;100.00
46007;BME280;31738;50.188;8.524;2022-10-15T03:14:00;97915.41;;;15.08;100.00
46007;BME280;31738;50.188;8.524;2022-10-15T03:16:26;97910.31;;;15.06;100.00
46007;BME280;31738;50.188;8.524;2022-10-15T03:18:52;97912.53;;;15.04;100.00
46007;BME280;31738;50.188;8.524;2022-10-15T03:21:17;97921.75;;;15.03;100.00
46007;BME280;31738;50.188;8.524;2022-10-15T03:23:43;97930.50;;;15.00;100.00
46007;BME280;31738;50.188;8.524;2022-10-15T03:26:15;97928.44;;;14.97;100.00
46007;BME280;31738;50.188;8.524;2022-10-15T03:28:41;97925.25;;;14.95;100.00
46007;BME280;31738;50.188;8.524;2022-10-15T03:31:06;97934.50;;;14.94;100.00
46007;BME280;31738;50.188;8.524;2022-10-15T03:33:32;97938.28;;;14.93;100.00
46007;BME280;31738;50.188;8.524;2022-10-15T03:35:57;97935.13;;;14.91;100.00
46007;BME280;31738;50.188;8.524;2022-10-15T03:38:27;97931.31;;;14.92;100.00
46007;BME280;31738;50.188;8.524;2022-10-15T03:40:53;97936.72;;;14.92;100.00
46007;BME280;31738;50.188;8.524;2022-10-15T03:43:27;97929.56;;;14.88;100.00
46007;BME280;31738;50.188;8.524;2022-10-15T03:45:53;97931.97;;;14.89;100.00
46007;BME280;31738;50.188;8.524;2022-10-15T03:48:22;97941.19;;;14.88;100.00
46007;BME280;31738;50.188;8.524;2022-10-15T03:50:47;97939.25;;;14.89;100.00
46007;BME280;31738;50.188;8.524;2022-10-15T03:53:13;97926.56;;;14.89;100.00
46007;BME280;31738;50.188;8.524;2022-10-15T03:55:39;97923.06;;;14.89;100.00
46007;BME280;31738;50.188;8.524;2022-10-15T03:58:04;97924.66;;;14.90;100.00
46007;BME280;31738;50.188;8.524;2022-10-15T04:00:30;97927.34;;;14.90;100.00
46007;BME280;31738;50.188;8.524;2022-10-15T04:02:59;97936.22;;;14.90;100.00
46007;BME280;31738;50.188;8.524;2022-10-15T04:05:27;97939.41;;;14.92;100.00
46007;BME280;31738;50.188;8.524;2022-10-15T04:07:58;97947.50;;;14.92;100.00
46007;BME280;31738;50.188;8.524;2022-10-15T04:10:26;97944.81;;;14.92;100.00
46007;BME280;31738;50.188;8.524;2022-10-15T04:12:51;97943.69;;;14.93;100.00
46007;BME280;31738;50.188;8.524;2022-10-15T04:15:17;97945.63;;;14.93;100.00
46007;BME280;31738;50.188;8.524;2022-10-15T04:17:53;97939.09;;;14.94;100.00
46007;BME280;31738;50.188;8.524;2022-10-15T04:20:20;97954.50;;;14.93;100.00
46007;BME280;31738;50.188;8.524;2022-10-15T04:22:46;97949.09;;;14.93;100.00
46007;BME280;31738;50.188;8.524;2022-10-15T04:25:13;97952.91;;;14.92;100.00
46007;BME280;31738;50.188;8.524;2022-10-15T04:27:38;97952.59;;;14.94;100.00
46007;BME280;31738;50.188;8.524;2022-10-15T04:30:08;97954.50;;;14.93;100.00
46007;BME280;31738;50.188;8.524;2022-10-15T04:32:36;97956.09;;;14.94;100.00
46007;BME280;31738;50.188;8.524;2022-10-15T04:35:02;97956.09;;;14.94;100.00
46007;BME280;31738;50.188;8.524;2022-10-15T04:38:06;97965.16;;;14.90;100.00
46007;BME280;31738;50.188;8.524;2022-10-15T04:40:58;97973.25;;;14.90;100.00
46007;BME280;31738;50.188;8.524;2022-10-15T04:43:27;97963.72;;;14.92;100.00
46007;BME280;31738;50.188;8.524;2022-10-15T04:45:59;97955.28;;;14.94;100.00
46007;BME280;31738;50.188;8.524;2022-10-15T04:48:27;97953.84;;;14.96;100.00
46007;BME280;31738;50.188;8.524;2022-10-15T04:50:53;97963.06;;;14.95;100.00
46007;BME280;31738;50.188;8.524;2022-10-15T04:53:21;97955.47;;;14.97;100.00
46007;BME280;31738;50.188;8.524;2022-10-15T04:55:50;97959.56;;;14.95;100.00
46007;BME280;31738;50.188;8.524;2022-10-15T04:58:15;97964.66;;;14.96;100.00
46007;BME280;31738;50.188;8.524;2022-10-15T05:00:41;97978.63;;;14.98;100.00
46007;BME280;31738;50.188;8.524;2022-10-15T05:03:32;97981.97;;;14.95;100.00
46007;BME280;31738;50.188;8.524;2022-10-15T05:06:04;97969.72;;;14.98;100.00
46007;BME280;31738;50.188;8.524;2022-10-15T05:08:32;97967.03;;;14.98;100.00
46007;BME280;31738;50.188;8.524;2022-10-15T05:11:09;97971.66;;;14.97;100.00
46007;BME280;31738;50.188;8.524;2022-10-15T05:13:36;97960.84;;;14.97;100.00
46007;BME280;31738;50.188;8.524;2022-10-15T05:16:17;97966.09;;;14.94;100.00
46007;BME280;31738;50.188;8.524;2022-10-15T05:18:46;97966.91;;;14.94;100.00
46007;BME280;31738;50.188;8.524;2022-10-15T05:21:12;97961.50;;;14.94;100.00
46007;BME280;31738;50.188;8.524;2022-10-15T05:23:39;97976.91;;;14.94;100.00
46007;BME280;31738;50.188;8.524;2022-10-15T05:26:21;97983.88;;;14.95;100.00
46007;BME280;31738;50.188;8.524;2022-10-15T05:28:47;97983.09;;;14.94;100.00
46007;BME280;31738;50.188;8.524;2022-10-15T05:31:24;97976.91;;;14.94;100.00
46007;BME280;31738;50.188;8.524;2022-10-15T05:34:05;97980.72;;;14.93;100.00
46007;BME280;31738;50.188;8.524;2022-10-15T05:36:33;97982.94;;;14.91;100.00
46007;BME280;31738;50.188;8.524;2022-10-15T05:39:01;97988.03;;;14.92;100.00
46007;BME280;31738;50.188;8.524;2022-10-15T05:41:28;97993.41;;;14.92;100.00
46007;BME280;31738;50.188;8.524;2022-10-15T05:43:55;97998.81;;;14.92;100.00
46007;BME280;31738;50.188;8.524;2022-10-15T05:46:24;98002.16;;;14.89;100.00
46007;BME280;31738;50.188;8.524;2022-10-15T05:48:52;98006.91;;;14.92;100.00
46007;BME280;31738;50.188;8.524;2022-10-15T05:51:18;98000.72;;;14.92;100.00
46007;BME280;31738;50.188;8.524;2022-10-15T05:53:46;97999.47;;;14.89;100.00
46007;BME280;31738;50.188;8.524;2022-10-15T05:56:13;98010.25;;;14.89;100.00
46007;BME280;31738;50.188;8.524;2022-10-15T05:58:39;98019.16;;;14.90;100.00
46007;BME280;31738;50.188;8.524;2022-10-15T06:01:07;98018.84;;;14.91;100.00
46007;BME280;31738;50.188;8.524;2022-10-15T06:03:38;98019.16;;;14.90;100.00
46007;BME280;31738;50.188;8.524;2022-10-15T06:06:04;98029.16;;;14.89;100.00
46007;BME280;31738;50.188;8.524;2022-10-15T06:08:34;98038.38;;;14.88;100.00
46007;BME280;31738;50.188;8.524;2022-10-15T06:11:02;98031.06;;;14.89;100.00
46007;BME280;31738;50.188;8.524;2022-10-15T06:13:28;98046.50;;;14.88;100.00
46007;BME280;31738;50.188;8.524;2022-10-15T06:15:54;98042.66;;;14.89;100.00
46007;BME280;31738;50.188;8.524;2022-10-15T06:18:19;98038.38;;;14.88;100.00
46007;BME280;31738;50.188;8.524;2022-10-15T06:20:50;98028.19;;;14.85;100.00
46007;BME280;31738;50.188;8.524;2022-10-15T06:23:17;98022.78;;;14.85;100.00
46007;BME280;31738;50.188;8.524;2022-10-15T06:25:42;98036.00;;;14.87;100.00
46007;BME280;31738;50.188;8.524;2022-10-15T06:28:08;98037.59;;;14.88;100.00
46007;BME280;31738;50.188;8.524;2022-10-15T06:30:40;98044.88;;;14.87;100.00
46007;BME280;31738;50.188;8.524;2022-10-15T06:33:05;98048.06;;;14.89;100.00
46007;BME280;31738;50.188;8.524;2022-10-15T06:35:31;98041.88;;;14.89;100.00
46007;BME280;31738;50.188;8.524;2022-10-15T06:38:03;98057.75;;;14.90;100.00
46007;BME280;31738;50.188;8.524;2022-10-15T06:40:29;98063.16;;;14.90;100.00
46007;BME280;31738;50.188;8.524;2022-10-15T06:43:02;98061.56;;;14.89;100.00
46007;BME280;31738;50.188;8.524;2022-10-15T06:45:28;98068.53;;;14.90;100.00
46007;BME280;31738;50.188;8.524;2022-10-15T06:47:53;98076.97;;;14.89;100.00
46007;BME280;31738;50.188;8.524;2022-10-15T06:50:19;98077.78;;;14.89;100.00
46007;BME280;31738;50.188;8.524;2022-10-15T06:52:44;98083.16;;;14.89;100.00
46007;BME280;31738;50.188;8.524;2022-10-15T06:55:10;98087.13;;;14.92;100.00
46007;BME280;31738;50.188;8.524;2022-10-15T06:57:35;98085.25;;;14.92;100.00
46007;BME280;31738;50.188;8.524;2022-10-15T07:00:01;98089.50;;;14.93;100.00
46007;BME280;31738;50.188;8.524;2022-10-15T07:02:26;98080.31;;;14.94;100.00
46007;BME280;31738;50.188;8.524;2022-10-15T07:04:51;98079.69;;;14.97;100.00
46007;BME280;31738;50.188;8.524;2022-10-15T07:07:19;98082.06;;;14.99;100.00
46007;BME280;31738;50.188;8.524;2022-10-15T07:09:44;98097.63;;;15.02;100.00
46007;BME280;31738;50.188;8.524;2022-10-15T07:12:11;98099.22;;;15.03;100.00
46007;BME280;31738;50.188;8.524;2022-10-15T07:14:39;98100.47;;;15.05;100.00
46007;BME280;31738;50.188;8.524;2022-10-15T07:17:04;98094.75;;;15.07;100.00
46007;BME280;31738;50.188;8.524;2022-10-15T07:19:30;98106.84;;;15.09;100.00
46007;BME280;31738;50.188;8.524;2022-10-15T07:21:55;98103.84;;;15.11;100.00
46007;BME280;31738;50.188;8.524;2022-10-15T07:24:21;98115.09;;;15.13;100.00
46007;BME280;31738;50.188;8.524;2022-10-15T07:26:47;98110.50;;;15.13;100.00
46007;BME280;31738;50.188;8.524;2022-10-15T07:29:23;98111.31;;;15.14;100.00
46007;BME280;31738;50.188;8.524;2022-10-15T07:31:52;98109.41;;;15.14;100.00
46007;BME280;31738;50.188;8.524;2022-10-15T07:34:18;98118.44;;;15.18;100.00
46007;BME280;31738;50.188;8.524;2022-10-15T07:36:43;98115.13;;;15.21;100.00
46007;BME280;31738;50.188;8.524;2022-10-15T07:39:10;98114.78;;;15.23;100.00
46007;BME280;31738;50.188;8.524;2022-10-15T07:41:36;98115.59;;;15.23;100.00
46007;BME280;31738;50.188;8.524;2022-10-15T07:44:05;98109.56;;;15.26;100.00
46007;BME280;31738;50.188;8.524;2022-10-15T07:46:40;98118.13;;;15.28;100.00
46007;BME280;31738;50.188;8.524;2022-10-15T07:49:16;98125.59;;;15.31;100.00
46007;BME280;31738;50.188;8.524;2022-10-15T07:51:44;98116.72;;;15.31;100.00
46007;BME280;31738;50.188;8.524;2022-10-15T07:54:09;98118.28;;;15.32;100.00
46007;BME280;31738;50.188;8.524;2022-10-15T07:56:42;98122.25;;;15.34;100.00
46007;BME280;31738;50.188;8.524;2022-10-15T07:59:08;98114.13;;;15.34;100.00
46007;BME280;31738;50.188;8.524;2022-10-15T08:01:40;98117.84;;;15.38;100.00
46007;BME280;31738;50.188;8.524;2022-10-15T08:04:06;98115.63;;;15.41;100.00
46007;BME280;31738;50.188;8.524;2022-10-15T08:06:33;98116.88;;;15.43;100.00
46007;BME280;31738;50.188;8.524;2022-10-15T08:09:03;98115.94;;;15.48;100.00
46007;BME280;31738;50.188;8.524;2022-10-15T08:11:31;98123.06;;;15.52;100.00
46007;BME280;31738;50.188;8.524;2022-10-15T08:13:58;98129.41;;;15.56;100.00
46007;BME280;31738;50.188;8.524;2022-10-15T08:16:34;98129.59;;;15.60;100.00
46007;BME280;31738;50.188;8.524;2022-10-15T08:19:00;98135.94;;;15.64;100.00
46007;BME280;31738;50.188;8.524;2022-10-15T08:21:31;98142.31;;;15.68;100.00
46007;BME280;31738;50.188;8.524;2022-10-15T08:23:59;98144.84;;;15.73;100.00
46007;BME280;31738;50.188;8.524;2022-10-15T08:26:35;98146.44;;;15.74;100.00
46007;BME280;31738;50.188;8.524;2022-10-15T08:29:04;98150.06;;;15.78;100.00
46007;BME280;31738;50.188;8.524;2022-10-15T08:31:32;98149.75;;;15.79;100.00
46007;BME280;31738;50.188;8.524;2022-10-15T08:34:05;98151.34;;;15.80;100.00
46007;BME280;31738;50.188;8.524;2022-10-15T08:36:42;98147.34;;;15.78;100.00
46007;BME280;31738;50.188;8.524;2022-10-15T08:39:13;98158.81;;;15.75;100.00
46007;BME280;31738;50.188;8.524;2022-10-15T08:42:00;98155.97;;;15.71;100.00
46007;BME280;31738;50.188;8.524;2022-10-15T08:47:17;98155.66;;;15.73;100.00
46007;BME280;31738;50.188;8.524;2022-10-15T08:49:53;98156.13;;;15.75;100.00
46007;BME280;31738;50.188;8.524;2022-10-15T08:52:42;98153.41;;;15.75;100.00
46007;BME280;31738;50.188;8.524;2022-10-15T08:55:20;98158.50;;;15.76;100.00
46007;BME280;31738;50.188;8.524;2022-10-15T08:58:13;98163.59;;;15.78;100.00
46007;BME280;31738;50.188;8.524;2022-10-15T09:00:44;98158.19;;;15.78;100.00
46007;BME280;31738;50.188;8.524;2022-10-15T09:09:17;98164.22;;;15.75;100.00
46007;BME280;31738;50.188;8.524;2022-10-15T09:14:45;98169.81;;;15.78;100.00
46007;BME280;31738;50.188;8.524;2022-10-15T09:17:22;98165.19;;;15.79;100.00
46007;BME280;31738;50.188;8.524;2022-10-15T09:19:59;98166.94;;;15.83;100.00
46007;BME280;31738;50.188;8.524;2022-10-15T09:22:38;98163.91;;;15.85;100.00
46007;BME280;31738;50.188;8.524;2022-10-15T09:25:19;98163.91;;;15.85;100.00
46007;BME280;31738;50.188;8.524;2022-10-15T09:28:16;98172.19;;;15.80;100.00
46007;BME280;31738;50.188;8.524;2022-10-15T09:30:54;98179.16;;;15.81;100.00
46007;BME280;31738;50.188;8.524;2022-10-15T09:33:36;98177.28;;;15.81;100.00
46007;BME280;31738;50.188;8.524;2022-10-15T09:42:49;98172.03;;;15.85;100.00
46007;BME280;31738;50.188;8.524;2022-10-15T09:45:17;98179.31;;;15.93;100.00
46007;BME280;31738;50.188;8.524;2022-10-15T09:47:58;98167.88;;;15.96;100.00
46007;BME280;31738;50.188;8.524;2022-10-15T09:50:39;98175.78;;;16.01;100.00
46007;BME280;31738;50.188;8.524;2022-10-15T09:53:31;98165.41;;;16.11;100.00
46007;BME280;31738;50.188;8.524;2022-10-15T09:56:21;98153.28;;;16.26;100.00
46007;BME280;31738;50.188;8.524;2022-10-15T09:58:51;98151.63;;;16.42;100.00
46007;BME280;31738;50.188;8.524;2022-10-15T10:01:30;98158.44;;;16.56;100.00
46007;BME280;31738;50.188;8.524;2022-10-15T10:06:52;98162.63;;;16.83;100.00
46007;BME280;31738;50.188;8.524;2022-10-15T10:09:52;98168.47;;;16.85;100.00
46007;BME280;31738;50.188;8.524;2022-10-15T10:12:27;98161.31;;;16.89;100.00
46007;BME280;31738;50.188;8.524;2022-10-15T10:15:04;98167.66;;;16.93;100.00
46007;BME280;31738;50.188;8.524;2022-10-15T10:17:51;98169.56;;;16.92;100.00
46007;BME280;31738;50.188;8.524;2022-10-15T10:20:28;98169.22;;;16.94;100.00
46007;BME280;31738;50.188;8.524;2022-10-15T10:23:08;98171.94;;;16.94;100.00
46007;BME280;31738;50.188;8.524;2022-10-15T10:26:00;98173.72;;;16.90;100.00
46007;BME280;31738;50.188;8.524;2022-10-15T10:28:50;98180.59;;;16.87;100.00
46007;BME280;31738;50.188;8.524;2022-10-15T10:31:49;98181.75;;;16.78;100.00
46007;BME280;31738;50.188;8.524;2022-10-15T10:34:31;98179.03;;;16.78;100.00
46007;BME280;31738;50.188;8.524;2022-10-15T10:37:04;98191.00;;;16.77;100.00
46007;BME280;31738;50.188;8.524;2022-10-15T10:39:34;98186.38;;;16.77;100.00
46007;BME280;31738;50.188;8.524;2022-10-15T10:42:32;98186.75;;;16.67;100.00
46007;BME280;31738;50.188;8.524;2022-10-15T10:45:20;98183.25;;;16.67;100.00
46007;BME280;31738;50.188;8.524;2022-10-15T10:48:24;98181.19;;;16.64;100.00
46007;BME280;31738;50.188;8.524;2022-10-15T10:51:06;98177.34;;;16.65;100.00
46007;BME280;31738;50.188;8.524;2022-10-15T10:56:33;98181.69;;;16.57;100.00
46007;BME280;31738;50.188;8.524;2022-10-15T10:59:38;98182.22;;;16.51;100.00
46007;BME280;31738;50.188;8.524;2022-10-15T11:02:19;98182.66;;;16.53;100.00
46007;BME280;31738;50.188;8.524;2022-10-15T11:04:52;98177.72;;;16.55;100.00
46007;BME280;31738;50.188;8.524;2022-10-15T11:07:26;98183.13;;;16.55;100.00
46007;BME280;31738;50.188;8.524;2022-10-15T11:10:11;98177.72;;;16.55;100.00
46007;BME280;31738;50.188;8.524;2022-10-15T11:16:13;98171.38;;;16.51;100.00
46007;BME280;31738;50.188;8.524;2022-10-15T11:19:29;98164.34;;;16.50;100.00
46007;BME280;31738;50.188;8.524;2022-10-15T11:25:33;98153.03;;;16.56;100.00
46007;BME280;31738;50.188;8.524;2022-10-15T11:31:19;98151.66;;;16.71;100.00
46007;BME280;31738;50.188;8.524;2022-10-15T11:34:30;98138.41;;;16.78;100.00
46007;BME280;31738;50.188;8.524;2022-10-15T11:38:01;98133.25;;;16.85;100.00
46007;BME280;31738;50.188;8.524;2022-10-15T11:43:29;98136.25;;;16.92;100.00
46007;BME280;31738;50.188;8.524;2022-10-15T11:51:29;98137.38;;;16.91;100.00
46007;BME280;31738;50.188;8.524;2022-10-15T11:54:11;98126.25;;;16.84;100.00
46007;BME280;31738;50.188;8.524;2022-10-15T11:56:45;98117.97;;;16.89;100.00
46007;BME280;31738;50.188;8.524;2022-10-15T12:01:54;98136.28;;;16.63;100.00
46007;BME280;31738;50.188;8.524;2022-10-15T12:07:00;98123.59;;;16.75;100.00
46007;BME280;31738;50.188;8.524;2022-10-15T12:09:30;98119.94;;;16.80;100.00
46007;BME280;31738;50.188;8.524;2022-10-15T12:12:22;98118.00;;;16.80;100.00
46007;BME280;31738;50.188;8.524;2022-10-15T12:15:06;98113.72;;;16.79;100.00
46007;BME280;31738;50.188;8.524;2022-10-15T12:20:21;98108.75;;;16.81;100.00
46007;BME280;31738;50.188;8.524;2022-10-15T12:22:59;98105.25;;;16.81;100.00
46007;BME280;31738;50.188;8.524;2022-10-15T12:30:31;98096.72;;;16.91;100.00
46007;BME280;31738;50.188;8.524;2022-10-15T12:33:43;98101.22;;;16.87;100.00
46007;BME280;31738;50.188;8.524;2022-10-15T12:36:58;98097.94;;;16.81;100.00
46007;BME280;31738;50.188;8.524;2022-10-15T12:39:40;98091.53;;;16.86;100.00
46007;BME280;31738;50.188;8.524;2022-10-15T12:42:37;98084.16;;;16.86;100.00
46007;BME280;31738;50.188;8.524;2022-10-15T12:45:55;98078.44;;;16.88;100.00
46007;BME280;31738;50.188;8.524;2022-10-15T12:48:48;98073.22;;;16.83;100.00
46007;BME280;31738;50.188;8.524;2022-10-15T12:53:51;98072.81;;;16.93;100.00
46007;BME280;31738;50.188;8.524;2022-10-15T12:56:43;98069.31;;;16.92;100.00
46007;BME280;31738;50.188;8.524;2022-10-15T12:59:56;98066.00;;;16.87;100.00
46007;BME280;31738;50.188;8.524;2022-10-15T13:02:38;98072.22;;;16.87;100.00
46007;BME280;31738;50.188;8.524;2022-10-15T13:05:28;98069.19;;;16.89;100.00
46007;BME280;31738;50.188;8.524;2022-10-15T13:08:11;98071.25;;;16.92;100.00
46007;BME280;31738;50.188;8.524;2022-10-15T13:10:52;98067.88;;;16.95;100.00
46007;BME280;31738;50.188;8.524;2022-10-15T13:13:31;98067.06;;;16.94;100.00
46007;BME280;31738;50.188;8.524;2022-10-15T13:16:06;98069.44;;;16.96;100.00
46007;BME280;31738;50.188;8.524;2022-10-15T13:18:46;98062.88;;;16.97;100.00
46007;BME280;31738;50.188;8.524;2022-10-15T13:21:21;98068.31;;;16.97;100.00
46007;BME280;31738;50.188;8.524;2022-10-15T13:23:57;98067.22;;;16.98;100.00
46007;BME280;31738;50.188;8.524;2022-10-15T13:26:56;98069.31;;;16.92;100.00
46007;BME280;31738;50.188;8.524;2022-10-15T13:29:27;98071.81;;;16.97;100.00
46007;BME280;31738;50.188;8.524;2022-10-15T13:32:07;98069.59;;;16.99;100.00
46007;BME280;31738;50.188;8.524;2022-10-15T13:34:46;98070.34;;;17.00;100.00
46007;BME280;31738;50.188;8.524;2022-10-15T13:37:28;98067.31;;;17.01;100.00
46007;BME280;31738;50.188;8.524;2022-10-15T13:40:22;98070.03;;;17.01;100.00
46007;BME280;31738;50.188;8.524;2022-10-15T13:43:22;98067.22;;;16.98;100.00
46007;BME280;31738;50.188;8.524;2022-10-15T13:45:58;98061.91;;;17.01;100.00
46007;BME280;31738;50.188;8.524;2022-10-15T13:48:40;98063.03;;;17.00;100.00
46007;BME280;31738;50.188;8.524;2022-10-15T13:51:13;98062.03;;;17.05;100.00
46007;BME280;31738;50.188;8.524;2022-10-15T13:53:49;98055.94;;;17.08;100.00
46007;BME280;31738;50.188;8.524;2022-10-15T13:56:28;98060.03;;;17.14;100.00
46007;BME280;31738;50.188;8.524;2022-10-15T13:59:05;98063.22;;;17.16;100.00
46007;BME280;31738;50.188;8.524;2022-10-15T14:01:36;98063.38;;;17.20;100.00
46007;BME280;31738;50.188;8.524;2022-10-15T14:04:16;98079.28;;;17.21;100.00
46007;BME280;31738;50.188;8.524;2022-10-15T14:06:56;98073.88;;;17.21;100.00
46007;BME280;31738;50.188;8.524;2022-10-15T14:09:37;98072.75;;;17.22;100.00
46007;BME280;31738;50.188;8.524;2022-10-15T14:12:12;98066.50;;;17.22;100.00
46007;BME280;31738;50.188;8.524;2022-10-15T14:14:42;98061.91;;;17.22;100.00
46007;BME280;31738;50.188;8.524;2022-10-15T14:17:24;98067.84;;;17.16;100.00
46007;BME280;31738;50.188;8.524;2022-10-15T14:20:02;98069.78;;;17.15;100.00
46007;BME280;31738;50.188;8.524;2022-10-15T14:22:31;98077.25;;;17.18;100.00
46007;BME280;31738;50.188;8.524;2022-10-15T14:25:08;98075.63;;;17.17;100.00
46007;BME280;31738;50.188;8.524;2022-10-15T14:27:55;98079.47;;;17.16;100.00
46007;BME280;31738;50.188;8.524;2022-10-15T14:32:56;98079.44;;;17.04;100.00
46007;BME280;31738;50.188;8.524;2022-10-15T14:35:30;98079.25;;;17.09;100.00
46007;BME280;31738;50.188;8.524;2022-10-15T14:37:59;98074.06;;;17.16;100.00
46007;BME280;31738;50.188;8.524;2022-10-15T14:40:26;98074.19;;;17.20;100.00